TimeMST,TemperatureF,Dew PointF,Humidity,Sea Level PressureIn,VisibilityMPH,Wind Direction,Wind SpeedMPH,Gust SpeedMPH,PrecipitationIn,Events,Conditions,WindDirDegrees,DateUTC
12:15 AM,39.2,22.3,51,30.33,10.0,NW,4.6,-,N/A,,Clear,310,2012-11-28 07:15:00
12:35 AM,39.6,22.8,51,30.32,10.0,North,4.6,-,N/A,,Clear,350,2012-11-28 07:35:00
12:55 AM,39.9,22.6,50,30.32,10.0,North,3.5,-,N/A,,Clear,350,2012-11-28 07:55:00
1:15 AM,38.3,21.9,52,30.32,10.0,NW,4.6,-,N/A,,Clear,320,2012-11-28 08:15:00
1:35 AM,37.2,21.2,52,30.33,10.0,NW,4.6,-,N/A,,Clear,310,2012-11-28 08:35:00
1:55 AM,37.4,21.6,53,30.33,10.0,NW,6.9,-,N/A,,Clear,320,2012-11-28 08:55:00
2:15 AM,37.9,22.1,53,30.33,10.0,NNW,5.8,-,N/A,,Clear,330,2012-11-28 09:15:00
2:35 AM,37.0,22.1,55,30.33,10.0,NNW,5.8,-,N/A,,Clear,330,2012-11-28 09:35:00
2:55 AM,36.7,21.6,54,30.32,10.0,North,5.8,-,N/A,,Clear,350,2012-11-28 09:55:00
3:15 AM,39.0,22.1,51,30.31,10.0,NNW,5.8,-,N/A,,Clear,340,2012-11-28 10:15:00
3:35 AM,40.1,23.2,51,30.31,10.0,NNE,3.5,-,N/A,,Clear,20,2012-11-28 10:35:00
3:55 AM,37.9,21.7,52,30.31,10.0,NNW,4.6,-,N/A,,Clear,330,2012-11-28 10:55:00
4:15 AM,36.9,21.2,53,30.30,10.0,NNW,4.6,-,N/A,,Clear,330,2012-11-28 11:15:00
4:35 AM,35.6,20.3,54,30.30,10.0,NW,3.5,-,N/A,,Clear,320,2012-11-28 11:35:00
4:55 AM,34.9,20.1,55,30.30,10.0,North,5.8,-,N/A,,Clear,350,2012-11-28 11:55:00
5:15 AM,35.2,20.7,55,30.31,10.0,Calm,Calm,-,N/A,,Clear,0,2012-11-28 12:15:00
5:35 AM,36.7,21.2,54,30.31,10.0,Calm,Calm,-,N/A,,Clear,0,2012-11-28 12:35:00
5:55 AM,33.8,19.6,56,30.32,10.0,Calm,Calm,-,N/A,,Clear,0,2012-11-28 12:55:00
6:15 AM,34.2,20.1,57,30.32,10.0,Calm,Calm,-,N/A,,Clear,0,2012-11-28 13:15:00
6:35 AM,33.3,19.6,57,30.32,10.0,Calm,Calm,-,N/A,,Clear,0,2012-11-28 13:35:00
6:55 AM,34.3,20.1,56,30.32,10.0,NNW,3.5,-,N/A,,Clear,330,2012-11-28 13:55:00
7:15 AM,35.1,20.3,55,30.33,10.0,Calm,Calm,-,N/A,,Clear,0,2012-11-28 14:15:00
7:35 AM,37.9,21.2,51,30.33,10.0,Calm,Calm,-,N/A,,Clear,0,2012-11-28 14:35:00
7:55 AM,42.6,22.6,45,30.34,10.0,Calm,Calm,-,N/A,,Clear,0,2012-11-28 14:55:00
8:15 AM,47.3,23.5,39,30.35,10.0,West,3.5,-,N/A,,Clear,280,2012-11-28 15:15:00
8:35 AM,50.4,23.9,36,30.35,10.0,Calm,Calm,-,N/A,,Clear,0,2012-11-28 15:35:00
8:55 AM,49.6,22.8,35,30.35,10.0,Calm,Calm,-,N/A,,Clear,0,2012-11-28 15:55:00
9:15 AM,50.5,23.0,34,30.35,10.0,Calm,Calm,-,N/A,,Clear,0,2012-11-28 16:15:00
9:35 AM,52.5,23.9,33,30.36,10.0,Calm,Calm,-,N/A,,Clear,0,2012-11-28 16:35:00
9:55 AM,55.6,25.5,31,30.36,10.0,Calm,Calm,-,N/A,,Clear,0,2012-11-28 16:55:00
10:15 AM,58.3,28.4,32,30.36,10.0,SE,4.6,-,N/A,,Clear,130,2012-11-28 17:15:00
10:35 AM,58.8,28.8,32,30.36,10.0,SE,4.6,-,N/A,,Clear,130,2012-11-28 17:35:00
10:55 AM,59.4,29.5,32,30.35,10.0,East,3.5,-,N/A,,Clear,100,2012-11-28 17:55:00
11:15 AM,60.1,29.7,32,30.33,10.0,Calm,Calm,-,N/A,,Clear,0,2012-11-28 18:15:00
11:35 AM,61.2,30.7,32,30.32,10.0,ENE,3.5,-,N/A,,Clear,70,2012-11-28 18:35:00
11:55 AM,61.5,31.6,33,30.31,10.0,ESE,4.6,-,N/A,,Clear,110,2012-11-28 18:55:00
12:15 PM,61.9,32.0,33,30.30,10.0,Calm,Calm,-,N/A,,Clear,0,2012-11-28 19:15:00
12:35 PM,62.2,32.4,33,30.29,10.0,Calm,Calm,-,N/A,,Clear,0,2012-11-28 19:35:00
12:55 PM,63.9,33.1,32,30.28,10.0,ENE,4.6,-,N/A,,Clear,70,2012-11-28 19:55:00
1:15 PM,64.8,34.2,32,30.27,10.0,Calm,Calm,-,N/A,,Clear,0,2012-11-28 20:15:00
1:35 PM,65.8,36.0,33,30.25,10.0,South,4.6,-,N/A,,Clear,190,2012-11-28 20:35:00
1:55 PM,65.3,35.8,34,30.24,10.0,South,5.8,-,N/A,,Clear,180,2012-11-28 20:55:00
2:15 PM,66.4,35.8,32,30.23,10.0,SE,3.5,-,N/A,,Clear,140,2012-11-28 21:15:00
2:35 PM,66.4,35.6,32,30.21,10.0,Calm,Calm,-,N/A,,Clear,0,2012-11-28 21:35:00
2:55 PM,67.3,35.1,30,30.21,10.0,ESE,3.5,-,N/A,,Clear,120,2012-11-28 21:55:00
3:15 PM,66.7,35.6,32,30.20,10.0,SE,4.6,-,N/A,,Clear,130,2012-11-28 22:15:00
3:35 PM,66.7,35.2,31,30.20,10.0,SSE,4.6,-,N/A,,Clear,160,2012-11-28 22:35:00
3:55 PM,66.4,35.2,32,30.20,10.0,SE,4.6,-,N/A,,Clear,130,2012-11-28 22:55:00
4:15 PM,65.7,34.7,32,30.20,10.0,Calm,Calm,-,N/A,,Clear,0,2012-11-28 23:15:00
4:35 PM,64.8,34.3,32,30.20,10.0,SSE,3.5,-,N/A,,Clear,150,2012-11-28 23:35:00
4:55 PM,63.3,34.0,33,30.20,10.0,Calm,Calm,-,N/A,,Clear,0,2012-11-28 23:55:00
5:15 PM,61.3,33.4,35,30.20,10.0,South,4.6,-,N/A,,Clear,170,2012-11-29 00:15:00
5:35 PM,59.9,33.6,37,30.21,10.0,South,4.6,-,N/A,,Clear,180,2012-11-29 00:35:00
5:55 PM,58.8,33.6,39,30.21,10.0,South,4.6,-,N/A,,Clear,180,2012-11-29 00:55:00
6:15 PM,56.5,32.0,39,30.21,10.0,SSW,4.6,-,N/A,,Clear,200,2012-11-29 01:15:00
6:35 PM,56.5,32.5,40,30.21,10.0,SSW,3.5,-,N/A,,Clear,200,2012-11-29 01:35:00
6:55 PM,54.3,31.1,41,30.22,10.0,Calm,Calm,-,N/A,,Clear,0,2012-11-29 01:55:00
7:15 PM,52.3,30.7,44,30.21,10.0,Calm,Calm,-,N/A,,Clear,0,2012-11-29 02:15:00
7:35 PM,54.5,31.1,41,30.21,10.0,South,3.5,-,N/A,,Clear,180,2012-11-29 02:35:00
7:55 PM,50.4,27.7,42,30.21,10.0,Calm,Calm,-,N/A,,Clear,0,2012-11-29 02:55:00
8:15 PM,51.3,30.9,46,30.21,10.0,West,4.6,-,N/A,,Clear,260,2012-11-29 03:15:00
8:35 PM,50.0,29.5,45,30.21,10.0,WSW,3.5,-,N/A,,Clear,240,2012-11-29 03:35:00
8:55 PM,48.2,30.2,50,30.21,10.0,WSW,3.5,-,N/A,,Clear,250,2012-11-29 03:55:00
9:15 PM,50.0,31.8,50,30.21,10.0,West,8.1,-,N/A,,Clear,270,2012-11-29 04:15:00
9:35 PM,49.5,32.0,51,30.22,10.0,WNW,9.2,-,N/A,,Clear,290,2012-11-29 04:35:00
9:55 PM,51.3,32.7,49,30.23,10.0,West,10.4,-,N/A,,Clear,280,2012-11-29 04:55:00
10:15 PM,50.7,32.5,50,30.23,10.0,West,8.1,-,N/A,,Clear,280,2012-11-29 05:15:00
10:35 PM,49.5,32.4,52,30.23,10.0,WNW,8.1,-,N/A,,Clear,290,2012-11-29 05:35:00
10:55 PM,48.0,32.2,54,30.23,10.0,WNW,9.2,-,N/A,,Clear,290,2012-11-29 05:55:00
11:15 PM,48.6,33.3,56,30.23,10.0,WNW,9.2,-,N/A,,Clear,290,2012-11-29 06:15:00
11:35 PM,47.5,32.9,57,30.23,10.0,WNW,8.1,-,N/A,,Clear,290,2012-11-29 06:35:00